sensor_id;sensor_type;location;lat;lon;timestamp;P1;durP1;ratioP1;P2;durP2;ratioP2
3016;SDS011;1518;52.408;13.060;2023-04-06T00:00:45;1.90;;;1.77;;
3016;SDS011;1518;52.408;13.060;2023-04-06T00:03:33;2.42;;;2.13;;
3016;SDS011;1518;52.408;13.060;2023-04-06T00:06:23;2.67;;;1.60;;
3016;SDS011;1518;52.408;13.060;2023-04-06T00:09:11;1.50;;;1.40;;
3016;SDS011;1518;52.408;13.060;2023-04-06T00:11:59;2.03;;;1.58;;
3016;SDS011;1518;52.408;13.060;2023-04-06T00:14:47;2.05;;;1.45;;
3016;SDS011;1518;52.408;13.060;2023-04-06T00:17:35;1.63;;;1.52;;
3016;SDS011;1518;52.408;13.060;2023-04-06T00:20:23;1.88;;;1.77;;
3016;SDS011;1518;52.408;13.060;2023-04-06T00:23:13;1.85;;;1.75;;
3016;SDS011;1518;52.408;13.060;2023-04-06T00:26:01;2.60;;;1.90;;
3016;SDS011;1518;52.408;13.060;2023-04-06T00:28:49;1.83;;;1.40;;
3016;SDS011;1518;52.408;13.060;2023-04-06T00:31:38;1.80;;;1.70;;
3016;SDS011;1518;52.408;13.060;2023-04-06T00:34:26;3.30;;;1.50;;
3016;SDS011;1518;52.408;13.060;2023-04-06T00:37:14;1.65;;;1.55;;
3016;SDS011;1518;52.408;13.060;2023-04-06T00:40:04;1.55;;;1.40;;
3016;SDS011;1518;52.408;13.060;2023-04-06T00:42:53;1.52;;;1.42;;
3016;SDS011;1518;52.408;13.060;2023-04-06T00:45:41;2.00;;;1.90;;
3016;SDS011;1518;52.408;13.060;2023-04-06T00:48:30;1.60;;;1.48;;
3016;SDS011;1518;52.408;13.060;2023-04-06T00:51:19;1.88;;;1.33;;
3016;SDS011;1518;52.408;13.060;2023-04-06T00:54:07;1.80;;;1.70;;
3016;SDS011;1518;52.408;13.060;2023-04-06T00:56:56;1.90;;;1.70;;
3016;SDS011;1518;52.408;13.060;2023-04-06T00:59:45;1.83;;;1.73;;
3016;SDS011;1518;52.408;13.060;2023-04-06T01:02:33;1.70;;;1.60;;
3016;SDS011;1518;52.408;13.060;2023-04-06T01:05:21;1.40;;;1.30;;
3016;SDS011;1518;52.408;13.060;2023-04-06T01:08:09;3.20;;;1.67;;
3016;SDS011;1518;52.408;13.060;2023-04-06T01:10:58;1.45;;;1.35;;
3016;SDS011;1518;52.408;13.060;2023-04-06T01:13:48;2.53;;;1.50;;
3016;SDS011;1518;52.408;13.060;2023-04-06T01:16:36;1.70;;;1.60;;
3016;SDS011;1518;52.408;13.060;2023-04-06T01:19:24;1.63;;;1.48;;
3016;SDS011;1518;52.408;13.060;2023-04-06T01:22:15;1.30;;;1.20;;
3016;SDS011;1518;52.408;13.060;2023-04-06T01:25:03;2.03;;;1.83;;
3016;SDS011;1518;52.408;13.060;2023-04-06T01:27:52;6.13;;;1.77;;
3016;SDS011;1518;52.408;13.060;2023-04-06T01:30:40;1.83;;;1.65;;
3016;SDS011;1518;52.408;13.060;2023-04-06T01:33:28;2.28;;;2.00;;
3016;SDS011;1518;52.408;13.060;2023-04-06T01:36:17;1.60;;;1.50;;
3016;SDS011;1518;52.408;13.060;2023-04-06T01:39:06;1.88;;;1.77;;
3016;SDS011;1518;52.408;13.060;2023-04-06T01:41:54;1.70;;;1.60;;
3016;SDS011;1518;52.408;13.060;2023-04-06T01:44:42;1.83;;;1.73;;
3016;SDS011;1518;52.408;13.060;2023-04-06T01:47:30;2.08;;;1.95;;
3016;SDS011;1518;52.408;13.060;2023-04-06T01:50:18;1.70;;;1.60;;
3016;SDS011;1518;52.408;13.060;2023-04-06T01:53:06;2.13;;;1.63;;
3016;SDS011;1518;52.408;13.060;2023-04-06T01:55:56;1.67;;;1.58;;
3016;SDS011;1518;52.408;13.060;2023-04-06T01:58:44;1.48;;;1.38;;
3016;SDS011;1518;52.408;13.060;2023-04-06T02:01:32;2.63;;;2.20;;
3016;SDS011;1518;52.408;13.060;2023-04-06T02:04:20;1.90;;;1.73;;
3016;SDS011;1518;52.408;13.060;2023-04-06T02:07:08;1.70;;;1.60;;
3016;SDS011;1518;52.408;13.060;2023-04-06T02:09:56;1.50;;;1.40;;
3016;SDS011;1518;52.408;13.060;2023-04-06T02:12:45;2.30;;;1.85;;
3016;SDS011;1518;52.408;13.060;2023-04-06T02:15:33;2.75;;;1.70;;
3016;SDS011;1518;52.408;13.060;2023-04-06T02:18:21;2.20;;;2.10;;
3016;SDS011;1518;52.408;13.060;2023-04-06T02:21:09;2.10;;;1.90;;
3016;SDS011;1518;52.408;13.060;2023-04-06T02:23:57;1.88;;;1.77;;
3016;SDS011;1518;52.408;13.060;2023-04-06T02:26:45;1.85;;;1.42;;
3016;SDS011;1518;52.408;13.060;2023-04-06T02:29:35;2.45;;;1.92;;
3016;SDS011;1518;52.408;13.060;2023-04-06T02:32:23;2.63;;;1.85;;
3016;SDS011;1518;52.408;13.060;2023-04-06T02:35:11;1.88;;;1.63;;
3016;SDS011;1518;52.408;13.060;2023-04-06T02:37:59;1.50;;;1.40;;
3016;SDS011;1518;52.408;13.060;2023-04-06T02:40:47;4.03;;;2.38;;
3016;SDS011;1518;52.408;13.060;2023-04-06T02:43:35;1.77;;;1.67;;
3016;SDS011;1518;52.408;13.060;2023-04-06T02:46:25;1.88;;;1.77;;
3016;SDS011;1518;52.408;13.060;2023-04-06T02:49:13;2.00;;;1.80;;
3016;SDS011;1518;52.408;13.060;2023-04-06T02:52:01;1.98;;;1.88;;
3016;SDS011;1518;52.408;13.060;2023-04-06T02:54:49;2.05;;;1.95;;
3016;SDS011;1518;52.408;13.060;2023-04-06T02:57:37;2.85;;;2.60;;
3016;SDS011;1518;52.408;13.060;2023-04-06T03:00:25;2.35;;;2.05;;
3016;SDS011;1518;52.408;13.060;2023-04-06T03:03:15;1.70;;;1.52;;
3016;SDS011;1518;52.408;13.060;2023-04-06T03:06:03;1.73;;;1.63;;
3016;SDS011;1518;52.408;13.060;2023-04-06T03:08:51;2.08;;;1.88;;
3016;SDS011;1518;52.408;13.060;2023-04-06T03:11:40;1.58;;;1.48;;
3016;SDS011;1518;52.408;13.060;2023-04-06T03:14:28;1.92;;;1.83;;
3016;SDS011;1518;52.408;13.060;2023-04-06T03:17:16;2.67;;;2.47;;
3016;SDS011;1518;52.408;13.060;2023-04-06T03:20:06;2.40;;;2.25;;
3016;SDS011;1518;52.408;13.060;2023-04-06T03:22:54;2.72;;;2.53;;
3016;SDS011;1518;52.408;13.060;2023-04-06T03:25:42;1.83;;;1.73;;
3016;SDS011;1518;52.408;13.060;2023-04-06T03:28:30;2.85;;;2.63;;
3016;SDS011;1518;52.408;13.060;2023-04-06T03:31:18;2.50;;;2.28;;
3016;SDS011;1518;52.408;13.060;2023-04-06T03:34:06;4.45;;;2.10;;
3016;SDS011;1518;52.408;13.060;2023-04-06T03:36:55;3.08;;;2.10;;
3016;SDS011;1518;52.408;13.060;2023-04-06T03:39:56;1.50;;;1.40;;
3016;SDS011;1518;52.408;13.060;2023-04-06T03:42:43;2.20;;;2.00;;
3016;SDS011;1518;52.408;13.060;2023-04-06T03:45:31;2.20;;;1.75;;
3016;SDS011;1518;52.408;13.060;2023-04-06T03:48:19;2.55;;;2.22;;
3016;SDS011;1518;52.408;13.060;2023-04-06T03:51:07;2.35;;;2.08;;
3016;SDS011;1518;52.408;13.060;2023-04-06T03:53:57;1.77;;;1.67;;
3016;SDS011;1518;52.408;13.060;2023-04-06T03:56:45;2.40;;;2.15;;
3016;SDS011;1518;52.408;13.060;2023-04-06T03:59:33;3.80;;;2.30;;
3016;SDS011;1518;52.408;13.060;2023-04-06T04:02:21;2.40;;;2.20;;
3016;SDS011;1518;52.408;13.060;2023-04-06T04:05:10;2.25;;;2.05;;
3016;SDS011;1518;52.408;13.060;2023-04-06T04:07:58;2.47;;;2.28;;
3016;SDS011;1518;52.408;13.060;2023-04-06T04:10:47;1.70;;;1.60;;
3016;SDS011;1518;52.408;13.060;2023-04-06T04:13:35;4.47;;;2.00;;
3016;SDS011;1518;52.408;13.060;2023-04-06T04:16:23;2.80;;;2.60;;
3016;SDS011;1518;52.408;13.060;2023-04-06T04:19:11;2.65;;;2.35;;
3016;SDS011;1518;52.408;13.060;2023-04-06T04:21:59;2.60;;;2.25;;
3016;SDS011;1518;52.408;13.060;2023-04-06T04:24:50;2.03;;;1.85;;
3016;SDS011;1518;52.408;13.060;2023-04-06T04:27:40;2.40;;;2.20;;
3016;SDS011;1518;52.408;13.060;2023-04-06T04:30:28;2.47;;;2.08;;
3016;SDS011;1518;52.408;13.060;2023-04-06T04:33:16;2.42;;;2.22;;
3016;SDS011;1518;52.408;13.060;2023-04-06T04:36:04;1.80;;;1.63;;
3016;SDS011;1518;52.408;13.060;2023-04-06T04:38:52;2.50;;;2.30;;
3016;SDS011;1518;52.408;13.060;2023-04-06T04:41:40;3.50;;;2.15;;
3016;SDS011;1518;52.408;13.060;2023-04-06T04:44:30;4.38;;;3.35;;
3016;SDS011;1518;52.408;13.060;2023-04-06T04:47:18;2.75;;;2.22;;
3016;SDS011;1518;52.408;13.060;2023-04-06T04:50:06;2.90;;;2.70;;
3016;SDS011;1518;52.408;13.060;2023-04-06T04:52:55;3.15;;;2.72;;
3016;SDS011;1518;52.408;13.060;2023-04-06T04:55:43;4.68;;;3.10;;
3016;SDS011;1518;52.408;13.060;2023-04-06T04:58:31;5.63;;;3.88;;
3016;SDS011;1518;52.408;13.060;2023-04-06T05:01:20;3.63;;;2.92;;
3016;SDS011;1518;52.408;13.060;2023-04-06T05:04:08;3.03;;;2.50;;
3016;SDS011;1518;52.408;13.060;2023-04-06T05:07:03;3.10;;;2.70;;
3016;SDS011;1518;52.408;13.060;2023-04-06T05:09:52;2.22;;;2.05;;
3016;SDS011;1518;52.408;13.060;2023-04-06T05:12:40;2.65;;;2.30;;
3016;SDS011;1518;52.408;13.060;2023-04-06T05:15:28;3.33;;;2.33;;
3016;SDS011;1518;52.408;13.060;2023-04-06T05:18:17;5.68;;;2.72;;
3016;SDS011;1518;52.408;13.060;2023-04-06T05:21:05;3.50;;;2.10;;
3016;SDS011;1518;52.408;13.060;2023-04-06T05:23:53;4.47;;;2.60;;
3016;SDS011;1518;52.408;13.060;2023-04-06T05:26:42;3.80;;;2.55;;
3016;SDS011;1518;52.408;13.060;2023-04-06T05:29:30;2.97;;;2.67;;
3016;SDS011;1518;52.408;13.060;2023-04-06T05:32:18;3.83;;;2.35;;
3016;SDS011;1518;52.408;13.060;2023-04-06T05:35:10;3.10;;;2.90;;
3016;SDS011;1518;52.408;13.060;2023-04-06T05:37:59;5.07;;;2.80;;
3016;SDS011;1518;52.408;13.060;2023-04-06T05:40:47;2.92;;;2.40;;
3016;SDS011;1518;52.408;13.060;2023-04-06T05:43:35;3.08;;;2.22;;
3016;SDS011;1518;52.408;13.060;2023-04-06T05:46:23;6.28;;;3.13;;
3016;SDS011;1518;52.408;13.060;2023-04-06T05:49:11;3.63;;;2.45;;
3016;SDS011;1518;52.408;13.060;2023-04-06T05:52:01;2.40;;;2.20;;
3016;SDS011;1518;52.408;13.060;2023-04-06T05:54:50;6.18;;;2.97;;
3016;SDS011;1518;52.408;13.060;2023-04-06T05:57:38;2.63;;;2.42;;
3016;SDS011;1518;52.408;13.060;2023-04-06T06:00:27;4.55;;;2.78;;
3016;SDS011;1518;52.408;13.060;2023-04-06T06:03:15;10.73;;;3.15;;
3016;SDS011;1518;52.408;13.060;2023-04-06T06:06:03;3.08;;;2.38;;
3016;SDS011;1518;52.408;13.060;2023-04-06T06:08:53;2.80;;;2.58;;
3016;SDS011;1518;52.408;13.060;2023-04-06T06:11:42;4.90;;;2.70;;
3016;SDS011;1518;52.408;13.060;2023-04-06T06:14:30;2.92;;;2.40;;
3016;SDS011;1518;52.408;13.060;2023-04-06T06:17:18;3.95;;;2.40;;
3016;SDS011;1518;52.408;13.060;2023-04-06T06:20:07;6.65;;;3.10;;
3016;SDS011;1518;52.408;13.060;2023-04-06T06:22:55;6.28;;;2.88;;
3016;SDS011;1518;52.408;13.060;2023-04-06T06:25:45;7.50;;;4.30;;
3016;SDS011;1518;52.408;13.060;2023-04-06T06:28:33;3.55;;;2.95;;
3016;SDS011;1518;52.408;13.060;2023-04-06T06:31:21;4.43;;;2.90;;
3016;SDS011;1518;52.408;13.060;2023-04-06T06:34:09;2.35;;;2.05;;
3016;SDS011;1518;52.408;13.060;2023-04-06T06:36:59;3.40;;;2.60;;
3016;SDS011;1518;52.408;13.060;2023-04-06T06:39:48;5.00;;;2.83;;
3016;SDS011;1518;52.408;13.060;2023-04-06T06:42:37;13.98;;;12.40;;
3016;SDS011;1518;52.408;13.060;2023-04-06T06:45:26;4.57;;;4.18;;
3016;SDS011;1518;52.408;13.060;2023-04-06T06:48:15;3.40;;;3.08;;
3016;SDS011;1518;52.408;13.060;2023-04-06T06:51:03;4.03;;;2.78;;
3016;SDS011;1518;52.408;13.060;2023-04-06T06:53:52;2.78;;;2.53;;
3016;SDS011;1518;52.408;13.060;2023-04-06T06:56:40;3.33;;;2.50;;
3016;SDS011;1518;52.408;13.060;2023-04-06T06:59:29;2.80;;;2.40;;
3016;SDS011;1518;52.408;13.060;2023-04-06T07:02:17;3.00;;;2.20;;
3016;SDS011;1518;52.408;13.060;2023-04-06T07:05:06;3.28;;;2.95;;
3016;SDS011;1518;52.408;13.060;2023-04-06T07:08:09;2.28;;;2.17;;
3016;SDS011;1518;52.408;13.060;2023-04-06T07:10:57;4.47;;;2.17;;
3016;SDS011;1518;52.408;13.060;2023-04-06T07:13:45;2.45;;;2.25;;
3016;SDS011;1518;52.408;13.060;2023-04-06T07:16:35;2.33;;;2.10;;
3016;SDS011;1518;52.408;13.060;2023-04-06T07:19:23;3.70;;;2.00;;
3016;SDS011;1518;52.408;13.060;2023-04-06T07:22:11;3.67;;;2.60;;
3016;SDS011;1518;52.408;13.060;2023-04-06T07:24:59;2.45;;;2.25;;
3016;SDS011;1518;52.408;13.060;2023-04-06T07:27:47;3.65;;;2.20;;
3016;SDS011;1518;52.408;13.060;2023-04-06T07:30:36;2.95;;;2.40;;
3016;SDS011;1518;52.408;13.060;2023-04-06T07:33:26;2.28;;;2.08;;
3016;SDS011;1518;52.408;13.060;2023-04-06T07:36:16;3.70;;;2.22;;
3016;SDS011;1518;52.408;13.060;2023-04-06T07:39:04;2.40;;;2.20;;
3016;SDS011;1518;52.408;13.060;2023-04-06T07:41:54;2.10;;;2.00;;
3016;SDS011;1518;52.408;13.060;2023-04-06T07:44:42;4.38;;;2.70;;
3016;SDS011;1518;52.408;13.060;2023-04-06T07:47:30;3.72;;;2.03;;
3016;SDS011;1518;52.408;13.060;2023-04-06T07:50:20;4.03;;;2.00;;
3016;SDS011;1518;52.408;13.060;2023-04-06T07:53:08;2.50;;;2.28;;
3016;SDS011;1518;52.408;13.060;2023-04-06T07:55:57;2.47;;;2.22;;
3016;SDS011;1518;52.408;13.060;2023-04-06T07:58:47;2.45;;;2.25;;
3016;SDS011;1518;52.408;13.060;2023-04-06T08:01:40;1.88;;;1.75;;
3016;SDS011;1518;52.408;13.060;2023-04-06T08:04:28;3.25;;;1.98;;
3016;SDS011;1518;52.408;13.060;2023-04-06T08:07:18;3.85;;;2.47;;
3016;SDS011;1518;52.408;13.060;2023-04-06T08:10:06;3.53;;;2.10;;
3016;SDS011;1518;52.408;13.060;2023-04-06T08:12:54;2.15;;;1.95;;
3016;SDS011;1518;52.408;13.060;2023-04-06T08:15:43;2.20;;;2.10;;
3016;SDS011;1518;52.408;13.060;2023-04-06T08:18:31;2.22;;;2.03;;
3016;SDS011;1518;52.408;13.060;2023-04-06T08:21:19;3.63;;;2.20;;
3016;SDS011;1518;52.408;13.060;2023-04-06T08:24:08;2.75;;;2.55;;
3016;SDS011;1518;52.408;13.060;2023-04-06T08:26:56;2.13;;;1.92;;
3016;SDS011;1518;52.408;13.060;2023-04-06T08:29:44;2.65;;;2.00;;
3016;SDS011;1518;52.408;13.060;2023-04-06T08:32:33;2.03;;;1.77;;
3016;SDS011;1518;52.408;13.060;2023-04-06T08:35:22;2.55;;;2.20;;
3016;SDS011;1518;52.408;13.060;2023-04-06T08:38:10;2.03;;;1.80;;
3016;SDS011;1518;52.408;13.060;2023-04-06T08:40:59;1.73;;;1.63;;
3016;SDS011;1518;52.408;13.060;2023-04-06T08:43:48;2.30;;;2.10;;
3016;SDS011;1518;52.408;13.060;2023-04-06T08:46:39;3.03;;;1.60;;
3016;SDS011;1518;52.408;13.060;2023-04-06T08:49:27;1.88;;;1.67;;
3016;SDS011;1518;52.408;13.060;2023-04-06T08:52:16;2.42;;;1.80;;
3016;SDS011;1518;52.408;13.060;2023-04-06T08:55:06;2.30;;;2.10;;
3016;SDS011;1518;52.408;13.060;2023-04-06T08:57:55;2.63;;;1.40;;
3016;SDS011;1518;52.408;13.060;2023-04-06T09:00:44;1.70;;;1.60;;
3016;SDS011;1518;52.408;13.060;2023-04-06T09:03:33;2.10;;;1.70;;
3016;SDS011;1518;52.408;13.060;2023-04-06T09:06:26;3.15;;;1.75;;
3016;SDS011;1518;52.408;13.060;2023-04-06T09:09:15;1.92;;;1.83;;
3016;SDS011;1518;52.408;13.060;2023-04-06T09:12:03;1.63;;;1.52;;
3016;SDS011;1518;52.408;13.060;2023-04-06T09:14:53;1.85;;;1.50;;
3016;SDS011;1518;52.408;13.060;2023-04-06T09:17:43;1.70;;;1.60;;
3016;SDS011;1518;52.408;13.060;2023-04-06T09:20:32;2.35;;;1.70;;
3016;SDS011;1518;52.408;13.060;2023-04-06T09:23:21;2.45;;;1.75;;
3016;SDS011;1518;52.408;13.060;2023-04-06T09:26:10;1.80;;;1.50;;
3016;SDS011;1518;52.408;13.060;2023-04-06T09:29:00;1.77;;;1.50;;
3016;SDS011;1518;52.408;13.060;2023-04-06T09:31:51;1.67;;;1.58;;
3016;SDS011;1518;52.408;13.060;2023-04-06T09:34:39;1.85;;;1.50;;
3016;SDS011;1518;52.408;13.060;2023-04-06T09:37:27;1.88;;;1.38;;
3016;SDS011;1518;52.408;13.060;2023-04-06T09:40:16;2.05;;;1.60;;
3016;SDS011;1518;52.408;13.060;2023-04-06T09:43:05;1.42;;;1.33;;
3016;SDS011;1518;52.408;13.060;2023-04-06T09:45:53;2.10;;;1.90;;
3016;SDS011;1518;52.408;13.060;2023-04-06T09:48:44;2.72;;;1.50;;
3016;SDS011;1518;52.408;13.060;2023-04-06T09:51:35;1.80;;;1.60;;
3016;SDS011;1518;52.408;13.060;2023-04-06T09:54:27;1.42;;;1.33;;
3016;SDS011;1518;52.408;13.060;2023-04-06T09:57:18;1.45;;;1.35;;
3016;SDS011;1518;52.408;13.060;2023-04-06T10:00:13;1.65;;;1.55;;
3016;SDS011;1518;52.408;13.060;2023-04-06T10:03:14;2.80;;;1.92;;
3016;SDS011;1518;52.408;13.060;2023-04-06T10:06:14;1.67;;;1.58;;
3016;SDS011;1518;52.408;13.060;2023-04-06T10:09:08;1.90;;;1.35;;
3016;SDS011;1518;52.408;13.060;2023-04-06T10:11:57;1.48;;;1.38;;
3016;SDS011;1518;52.408;13.060;2023-04-06T10:14:46;1.60;;;1.50;;
3016;SDS011;1518;52.408;13.060;2023-04-06T10:17:34;1.98;;;1.33;;
3016;SDS011;1518;52.408;13.060;2023-04-06T10:20:23;1.50;;;1.15;;
3016;SDS011;1518;52.408;13.060;2023-04-06T10:23:19;3.33;;;1.63;;
3016;SDS011;1518;52.408;13.060;2023-04-06T10:26:14;1.88;;;1.38;;
3016;SDS011;1518;52.408;13.060;2023-04-06T10:29:04;1.83;;;1.10;;
3016;SDS011;1518;52.408;13.060;2023-04-06T10:31:53;1.45;;;1.20;;
3016;SDS011;1518;52.408;13.060;2023-04-06T10:34:41;1.42;;;1.33;;
3016;SDS011;1518;52.408;13.060;2023-04-06T10:37:45;1.30;;;1.20;;
3016;SDS011;1518;52.408;13.060;2023-04-06T10:40:36;1.42;;;1.33;;
3016;SDS011;1518;52.408;13.060;2023-04-06T10:43:26;1.58;;;1.48;;
3016;SDS011;1518;52.408;13.060;2023-04-06T10:46:14;1.58;;;1.48;;
3016;SDS011;1518;52.408;13.060;2023-04-06T10:49:13;1.30;;;1.20;;
3016;SDS011;1518;52.408;13.060;2023-04-06T10:52:01;1.42;;;1.33;;
3016;SDS011;1518;52.408;13.060;2023-04-06T10:54:49;1.67;;;1.38;;
3016;SDS011;1518;52.408;13.060;2023-04-06T10:57:39;2.35;;;1.13;;
3016;SDS011;1518;52.408;13.060;2023-04-06T11:00:28;1.60;;;1.50;;
3016;SDS011;1518;52.408;13.060;2023-04-06T11:03:42;1.90;;;1.30;;
3016;SDS011;1518;52.408;13.060;2023-04-06T11:06:31;1.48;;;1.38;;
3016;SDS011;1518;52.408;13.060;2023-04-06T11:09:23;1.38;;;1.27;;
3016;SDS011;1518;52.408;13.060;2023-04-06T11:12:20;1.90;;;1.73;;
3016;SDS011;1518;52.408;13.060;2023-04-06T11:15:10;2.85;;;1.55;;
3016;SDS011;1518;52.408;13.060;2023-04-06T11:17:59;1.77;;;1.67;;
3016;SDS011;1518;52.408;13.060;2023-04-06T11:20:51;1.52;;;1.42;;
3016;SDS011;1518;52.408;13.060;2023-04-06T11:23:39;1.50;;;1.40;;
3016;SDS011;1518;52.408;13.060;2023-04-06T11:26:27;3.05;;;1.50;;
3016;SDS011;1518;52.408;13.060;2023-04-06T11:29:16;1.30;;;1.20;;
3016;SDS011;1518;52.408;13.060;2023-04-06T11:32:06;2.35;;;1.27;;
3016;SDS011;1518;52.408;13.060;2023-04-06T11:34:54;3.15;;;1.65;;
3016;SDS011;1518;52.408;13.060;2023-04-06T11:37:45;1.60;;;1.42;;
3016;SDS011;1518;52.408;13.060;2023-04-06T11:40:33;2.58;;;2.22;;
3016;SDS011;1518;52.408;13.060;2023-04-06T11:43:25;1.60;;;1.50;;
3016;SDS011;1518;52.408;13.060;2023-04-06T11:46:17;1.30;;;1.20;;
3016;SDS011;1518;52.408;13.060;2023-04-06T11:49:07;1.40;;;1.23;;
3016;SDS011;1518;52.408;13.060;2023-04-06T11:51:55;1.20;;;1.10;;
3016;SDS011;1518;52.408;13.060;2023-04-06T11:54:43;2.13;;;1.30;;
3016;SDS011;1518;52.408;13.060;2023-04-06T11:57:32;1.25;;;1.10;;
3016;SDS011;1518;52.408;13.060;2023-04-06T12:00:21;1.30;;;1.20;;
3016;SDS011;1518;52.408;13.060;2023-04-06T12:03:09;80.05;;;12.82;;
3016;SDS011;1518;52.408;13.060;2023-04-06T12:05:59;87.60;;;16.90;;
3016;SDS011;1518;52.408;13.060;2023-04-06T12:08:47;44.55;;;9.82;;
3016;SDS011;1518;52.408;13.060;2023-04-06T12:11:35;31.63;;;7.47;;
3016;SDS011;1518;52.408;13.060;2023-04-06T12:14:23;27.67;;;5.82;;
3016;SDS011;1518;52.408;13.060;2023-04-06T12:17:11;18.52;;;4.65;;
3016;SDS011;1518;52.408;13.060;2023-04-06T12:19:59;17.33;;;4.93;;
3016;SDS011;1518;52.408;13.060;2023-04-06T12:23:09;12.02;;;4.68;;
3016;SDS011;1518;52.408;13.060;2023-04-06T12:25:57;16.75;;;3.70;;
3016;SDS011;1518;52.408;13.060;2023-04-06T12:28:45;11.25;;;3.88;;
3016;SDS011;1518;52.408;13.060;2023-04-06T12:31:35;12.98;;;4.43;;
3016;SDS011;1518;52.408;13.060;2023-04-06T12:34:25;11.93;;;4.05;;
3016;SDS011;1518;52.408;13.060;2023-04-06T12:37:14;16.35;;;3.58;;
3016;SDS011;1518;52.408;13.060;2023-04-06T12:40:05;16.48;;;3.47;;
3016;SDS011;1518;52.408;13.060;2023-04-06T12:42:53;19.95;;;4.10;;
3016;SDS011;1518;52.408;13.060;2023-04-06T12:45:41;11.13;;;3.40;;
3016;SDS011;1518;52.408;13.060;2023-04-06T12:48:29;12.57;;;3.33;;
3016;SDS011;1518;52.408;13.060;2023-04-06T12:51:18;9.75;;;3.00;;
3016;SDS011;1518;52.408;13.060;2023-04-06T12:54:06;11.93;;;2.78;;
3016;SDS011;1518;52.408;13.060;2023-04-06T12:56:56;8.60;;;2.60;;
3016;SDS011;1518;52.408;13.060;2023-04-06T12:59:44;7.60;;;2.92;;
3016;SDS011;1518;52.408;13.060;2023-04-06T13:02:32;6.50;;;3.17;;
3016;SDS011;1518;52.408;13.060;2023-04-06T13:05:21;6.57;;;2.78;;
3016;SDS011;1518;52.408;13.060;2023-04-06T13:08:09;4.55;;;2.75;;
3016;SDS011;1518;52.408;13.060;2023-04-06T13:10:57;7.07;;;2.42;;
3016;SDS011;1518;52.408;13.060;2023-04-06T13:13:46;7.32;;;2.35;;
3016;SDS011;1518;52.408;13.060;2023-04-06T13:16:34;9.45;;;2.40;;
3016;SDS011;1518;52.408;13.060;2023-04-06T13:19:22;10.07;;;2.25;;
3016;SDS011;1518;52.408;13.060;2023-04-06T13:22:11;5.65;;;2.00;;
3016;SDS011;1518;52.408;13.060;2023-04-06T13:24:59;4.68;;;2.28;;
3016;SDS011;1518;52.408;13.060;2023-04-06T13:27:47;13.68;;;3.30;;
3016;SDS011;1518;52.408;13.060;2023-04-06T13:30:37;9.20;;;2.55;;
3016;SDS011;1518;52.408;13.060;2023-04-06T13:33:25;5.13;;;2.33;;
3016;SDS011;1518;52.408;13.060;2023-04-06T13:36:14;13.52;;;2.95;;
3016;SDS011;1518;52.408;13.060;2023-04-06T13:39:03;4.55;;;1.88;;
3016;SDS011;1518;52.408;13.060;2023-04-06T13:41:53;7.47;;;2.53;;
3016;SDS011;1518;52.408;13.060;2023-04-06T13:44:41;5.47;;;1.85;;
3016;SDS011;1518;52.408;13.060;2023-04-06T13:47:31;4.57;;;1.95;;
3016;SDS011;1518;52.408;13.060;2023-04-06T13:50:19;5.90;;;2.47;;
3016;SDS011;1518;52.408;13.060;2023-04-06T13:53:07;5.00;;;2.20;;
3016;SDS011;1518;52.408;13.060;2023-04-06T13:55:56;4.68;;;1.70;;
3016;SDS011;1518;52.408;13.060;2023-04-06T13:58:44;2.75;;;2.08;;
3016;SDS011;1518;52.408;13.060;2023-04-06T14:01:32;5.25;;;1.92;;
3016;SDS011;1518;52.408;13.060;2023-04-06T14:04:22;6.38;;;2.30;;
3016;SDS011;1518;52.408;13.060;2023-04-06T14:07:10;4.22;;;2.38;;
3016;SDS011;1518;52.408;13.060;2023-04-06T14:09:58;5.68;;;2.28;;
3016;SDS011;1518;52.408;13.060;2023-04-06T14:12:46;4.88;;;1.88;;
3016;SDS011;1518;52.408;13.060;2023-04-06T14:15:34;6.38;;;2.28;;
3016;SDS011;1518;52.408;13.060;2023-04-06T14:18:23;8.02;;;2.60;;
3016;SDS011;1518;52.408;13.060;2023-04-06T14:21:12;2.95;;;1.67;;
3016;SDS011;1518;52.408;13.060;2023-04-06T14:24:01;5.13;;;2.28;;
3016;SDS011;1518;52.408;13.060;2023-04-06T14:26:49;4.50;;;2.40;;
3016;SDS011;1518;52.408;13.060;2023-04-06T14:29:37;2.97;;;1.52;;
3016;SDS011;1518;52.408;13.060;2023-04-06T14:32:26;4.45;;;1.90;;
3016;SDS011;1518;52.408;13.060;2023-04-06T14:35:14;3.83;;;1.85;;
3016;SDS011;1518;52.408;13.060;2023-04-06T14:38:03;3.78;;;1.65;;
3016;SDS011;1518;52.408;13.060;2023-04-06T14:40:51;4.50;;;1.40;;
3016;SDS011;1518;52.408;13.060;2023-04-06T14:43:40;5.25;;;1.83;;
3016;SDS011;1518;52.408;13.060;2023-04-06T14:46:28;3.00;;;1.58;;
3016;SDS011;1518;52.408;13.060;2023-04-06T14:49:16;2.50;;;1.55;;
3016;SDS011;1518;52.408;13.060;2023-04-06T14:52:04;1.80;;;1.35;;
3016;SDS011;1518;52.408;13.060;2023-04-06T14:54:54;1.95;;;1.45;;
3016;SDS011;1518;52.408;13.060;2023-04-06T14:57:42;2.70;;;1.10;;
3016;SDS011;1518;52.408;13.060;2023-04-06T15:00:30;3.97;;;2.30;;
3016;SDS011;1518;52.408;13.060;2023-04-06T15:03:18;3.33;;;1.50;;
3016;SDS011;1518;52.408;13.060;2023-04-06T15:06:11;4.95;;;2.30;;
3016;SDS011;1518;52.408;13.060;2023-04-06T15:09:01;2.33;;;1.90;;
3016;SDS011;1518;52.408;13.060;2023-04-06T15:11:51;3.70;;;1.50;;
3016;SDS011;1518;52.408;13.060;2023-04-06T15:14:39;1.77;;;1.33;;
3016;SDS011;1518;52.408;13.060;2023-04-06T15:17:27;2.08;;;1.33;;
3016;SDS011;1518;52.408;13.060;2023-04-06T15:20:15;2.30;;;1.83;;
3016;SDS011;1518;52.408;13.060;2023-04-06T15:23:03;1.80;;;1.55;;
3016;SDS011;1518;52.408;13.060;2023-04-06T15:25:52;2.85;;;1.70;;
3016;SDS011;1518;52.408;13.060;2023-04-06T15:28:41;2.25;;;1.40;;
3016;SDS011;1518;52.408;13.060;2023-04-06T15:31:30;1.90;;;1.30;;
3016;SDS011;1518;52.408;13.060;2023-04-06T15:34:24;2.55;;;1.25;;
3016;SDS011;1518;52.408;13.060;2023-04-06T15:37:12;2.63;;;1.40;;
3016;SDS011;1518;52.408;13.060;2023-04-06T15:40:00;1.92;;;1.42;;
3016;SDS011;1518;52.408;13.060;2023-04-06T15:42:48;3.78;;;1.50;;
3016;SDS011;1518;52.408;13.060;2023-04-06T15:45:38;4.50;;;1.48;;
3016;SDS011;1518;52.408;13.060;2023-04-06T15:48:27;2.13;;;1.83;;
3016;SDS011;1518;52.408;13.060;2023-04-06T15:51:17;2.30;;;1.77;;
3016;SDS011;1518;52.408;13.060;2023-04-06T15:54:06;3.72;;;1.73;;
3016;SDS011;1518;52.408;13.060;2023-04-06T15:56:54;3.20;;;1.50;;
3016;SDS011;1518;52.408;13.060;2023-04-06T15:59:42;2.35;;;1.30;;
3016;SDS011;1518;52.408;13.060;2023-04-06T16:02:31;3.17;;;1.40;;
3016;SDS011;1518;52.408;13.060;2023-04-06T16:05:20;3.35;;;1.45;;
3016;SDS011;1518;52.408;13.060;2023-04-06T16:08:09;1.70;;;1.35;;
3016;SDS011;1518;52.408;13.060;2023-04-06T16:10:58;4.28;;;1.73;;
3016;SDS011;1518;52.408;13.060;2023-04-06T16:13:46;2.65;;;1.40;;
3016;SDS011;1518;52.408;13.060;2023-04-06T16:16:40;3.15;;;1.48;;
3016;SDS011;1518;52.408;13.060;2023-04-06T16:19:30;5.13;;;1.33;;
3016;SDS011;1518;52.408;13.060;2023-04-06T16:22:18;2.22;;;1.23;;
3016;SDS011;1518;52.408;13.060;2023-04-06T16:25:06;2.10;;;1.20;;
3016;SDS011;1518;52.408;13.060;2023-04-06T16:27:55;2.47;;;1.42;;
3016;SDS011;1518;52.408;13.060;2023-04-06T16:30:43;2.22;;;1.52;;
3016;SDS011;1518;52.408;13.060;2023-04-06T16:33:32;2.50;;;1.58;;
3016;SDS011;1518;52.408;13.060;2023-04-06T16:36:22;1.60;;;1.50;;
3016;SDS011;1518;52.408;13.060;2023-04-06T16:39:10;3.35;;;1.65;;
3016;SDS011;1518;52.408;13.060;2023-04-06T16:41:58;2.45;;;1.67;;
3016;SDS011;1518;52.408;13.060;2023-04-06T16:44:48;2.65;;;1.30;;
3016;SDS011;1518;52.408;13.060;2023-04-06T16:47:37;1.80;;;1.30;;
3016;SDS011;1518;52.408;13.060;2023-04-06T16:50:25;1.98;;;1.48;;
3016;SDS011;1518;52.408;13.060;2023-04-06T16:53:14;1.45;;;1.35;;
3016;SDS011;1518;52.408;13.060;2023-04-06T16:56:02;1.48;;;1.38;;
3016;SDS011;1518;52.408;13.060;2023-04-06T16:58:51;1.60;;;1.30;;
3016;SDS011;1518;52.408;13.060;2023-04-06T17:01:39;7.15;;;1.40;;
3016;SDS011;1518;52.408;13.060;2023-04-06T17:04:28;1.30;;;1.20;;
3016;SDS011;1518;52.408;13.060;2023-04-06T17:07:16;2.45;;;1.10;;
3016;SDS011;1518;52.408;13.060;2023-04-06T17:10:06;1.50;;;1.20;;
3016;SDS011;1518;52.408;13.060;2023-04-06T17:12:54;1.80;;;1.23;;